createdAt,value
2022-11-24T00:01:26.011Z,99071.41
2022-11-24T00:04:00.222Z,99070.36
2022-11-24T00:06:30.266Z,99076.58
2022-11-24T00:08:58.996Z,99075.96
2022-11-24T00:11:31.684Z,99079.30
2022-11-24T00:14:00.514Z,99080.39
2022-11-24T00:16:34.418Z,99082.02
2022-11-24T00:19:04.687Z,99082.29
2022-11-24T00:21:32.642Z,99086.19
2022-11-24T00:24:01.329Z,99086.21
2022-11-24T00:26:31.917Z,99089.36
2022-11-24T00:29:03.269Z,99094.75
2022-11-24T00:31:37.230Z,99095.63
2022-11-24T00:34:07.797Z,99099.91
2022-11-24T00:36:37.178Z,99102.34
2022-11-24T00:39:12.287Z,99105.42
2022-11-24T00:41:41.133Z,99103.69
2022-11-24T00:44:09.336Z,99106.90
2022-11-24T00:46:37.930Z,99106.50
2022-11-24T00:49:06.210Z,99107.42
2022-11-24T00:51:34.277Z,99111.89
2022-11-24T00:54:02.548Z,99112.37
2022-11-24T00:56:30.959Z,99109.09
2022-11-24T00:58:59.092Z,99110.31
2022-11-24T01:01:31.185Z,99112.20
2022-11-24T01:04:02.081Z,99116.41
2022-11-24T01:06:31.094Z,99120.57
2022-11-24T01:08:58.987Z,99123.73
2022-11-24T01:11:28.231Z,99126.27
2022-11-24T01:13:58.601Z,99128.55
2022-11-24T01:16:31.035Z,99128.49
2022-11-24T01:19:00.142Z,99133.89
2022-11-24T01:21:27.978Z,99136.98
2022-11-24T01:23:55.916Z,99135.77
2022-11-24T01:26:23.782Z,99134.89
2022-11-24T01:28:56.389Z,99137.26
2022-11-24T01:31:26.012Z,99140.99
2022-11-24T01:33:54.515Z,99144.67
2022-11-24T01:36:23.052Z,99146.90
2022-11-24T01:38:51.977Z,99145.49
2022-11-24T01:41:22.683Z,99144.34
2022-11-24T01:43:52.196Z,99148.90
2022-11-24T01:46:43.508Z,99151.65
2022-11-24T01:49:21.819Z,99152.02
2022-11-24T01:52:05.468Z,99151.13
2022-11-24T01:54:38.681Z,99154.70
2022-11-24T01:57:27.491Z,99151.52
2022-11-24T02:00:02.043Z,99156.84
2022-11-24T02:02:43.954Z,99160.83
2022-11-24T02:05:29.805Z,99160.07
2022-11-24T02:08:01.083Z,99160.66
2022-11-24T02:10:29.818Z,99163.49
2022-11-24T02:13:00.368Z,99162.38
2022-11-24T02:15:28.829Z,99166.13
2022-11-24T02:17:59.051Z,99166.72
2022-11-24T02:20:27.008Z,99165.75
2022-11-24T02:23:09.780Z,99170.98
2022-11-24T02:26:08.412Z,99172.98
2022-11-24T02:28:40.281Z,99174.91
2022-11-24T02:31:08.914Z,99175.67
2022-11-24T02:33:37.704Z,99178.84
2022-11-24T02:36:05.924Z,99182.45
2022-11-24T02:38:35.594Z,99180.00
2022-11-24T02:41:07.771Z,99183.10
2022-11-24T02:43:42.634Z,99187.11
2022-11-24T02:46:10.931Z,99189.55
2022-11-24T02:48:39.295Z,99189.77
2022-11-24T02:51:07.136Z,99190.01
2022-11-24T02:53:35.302Z,99191.38
2022-11-24T02:56:03.380Z,99195.77
2022-11-24T02:58:31.346Z,99198.33
2022-11-24T03:00:59.893Z,99194.64
2022-11-24T03:03:28.059Z,99197.48
2022-11-24T03:05:55.988Z,99200.69
2022-11-24T03:08:23.885Z,99203.36
2022-11-24T03:10:51.858Z,99204.71
2022-11-24T03:13:19.704Z,99204.64
2022-11-24T03:15:47.625Z,99205.23
2022-11-24T03:18:15.569Z,99208.39
2022-11-24T03:20:44.253Z,99207.96
2022-11-24T03:23:12.189Z,99209.92
2022-11-24T03:25:40.596Z,99209.89
2022-11-24T03:28:08.493Z,99208.15
2022-11-24T03:30:36.385Z,99208.09
2022-11-24T03:33:05.121Z,99210.20
2022-11-24T03:35:33.090Z,99211.11
2022-11-24T03:38:00.994Z,99214.35
2022-11-24T03:40:28.863Z,99213.35
2022-11-24T03:42:57.167Z,99215.42
2022-11-24T03:48:13.622Z,99215.92
2022-11-24T03:50:41.550Z,99215.16
2022-11-24T03:53:09.495Z,99216.42
2022-11-24T03:55:37.353Z,99214.23
2022-11-24T03:58:05.244Z,99217.86
2022-11-24T04:00:33.178Z,99220.40
2022-11-24T04:03:00.995Z,99221.98
2022-11-24T04:05:29.121Z,99228.23
2022-11-24T04:07:57.662Z,99231.52
2022-11-24T04:10:25.531Z,99239.01
2022-11-24T04:12:53.395Z,99240.00
2022-11-24T04:15:22.308Z,99243.27
2022-11-24T04:17:50.867Z,99250.77
2022-11-24T04:20:18.926Z,99250.20
2022-11-24T04:22:46.838Z,99254.66
2022-11-24T04:25:17.480Z,99255.14
2022-11-24T04:27:45.809Z,99257.91
2022-11-24T04:30:13.619Z,99257.95
2022-11-24T04:32:41.437Z,99260.81
2022-11-24T04:35:09.427Z,99265.59
2022-11-24T04:37:37.569Z,99270.61
2022-11-24T04:40:07.570Z,99273.32
2022-11-24T04:42:35.574Z,99274.52
2022-11-24T04:45:04.950Z,99273.30
2022-11-24T04:47:33.114Z,99278.62
2022-11-24T04:50:01.157Z,99280.63
2022-11-24T04:52:30.377Z,99281.75
2022-11-24T04:54:58.261Z,99284.45
2022-11-24T04:57:27.164Z,99287.92
2022-11-24T04:59:55.415Z,99290.44
2022-11-24T05:02:23.486Z,99288.63
2022-11-24T05:04:51.501Z,99291.52
2022-11-24T05:07:19.837Z,99296.27
2022-11-24T05:10:06.437Z,99296.95
2022-11-24T05:12:34.424Z,99298.81
2022-11-24T05:15:04.605Z,99300.70
2022-11-24T05:17:35.374Z,99300.83
2022-11-24T05:20:06.011Z,99305.06
2022-11-24T05:22:34.339Z,99307.35
2022-11-24T05:25:02.502Z,99308.45
2022-11-24T05:27:30.680Z,99305.29
2022-11-24T05:29:59.056Z,99308.30
2022-11-24T05:32:27.100Z,99308.35
2022-11-24T05:34:55.319Z,99310.52
2022-11-24T05:37:25.601Z,99312.05
2022-11-24T05:39:54.788Z,99314.77
2022-11-24T05:42:46.091Z,99316.88
2022-11-24T05:45:18.766Z,99320.20
2022-11-24T05:47:47.168Z,99324.85
2022-11-24T05:50:17.161Z,99325.89
2022-11-24T05:52:45.528Z,99326.25
2022-11-24T05:55:15.184Z,99327.41
2022-11-24T05:57:43.685Z,99330.20
2022-11-24T06:00:12.442Z,99336.15
2022-11-24T06:02:41.028Z,99336.54
2022-11-24T06:05:09.416Z,99339.41
2022-11-24T06:07:37.573Z,99342.23
2022-11-24T06:10:05.949Z,99343.05
2022-11-24T06:12:33.786Z,99345.54
2022-11-24T06:15:02.218Z,99343.73
2022-11-24T06:17:30.129Z,99347.04
2022-11-24T06:19:58.015Z,99348.39
2022-11-24T06:22:25.938Z,99352.48
2022-11-24T06:24:53.930Z,99351.94
2022-11-24T06:27:21.912Z,99354.39
2022-11-24T06:29:49.819Z,99356.80
2022-11-24T06:32:18.046Z,99361.38
2022-11-24T06:34:46.078Z,99367.19
2022-11-24T06:37:14.060Z,99368.25
2022-11-24T06:39:42.595Z,99371.50
2022-11-24T06:42:10.526Z,99372.30
2022-11-24T06:44:39.481Z,99372.55
2022-11-24T06:47:07.436Z,99376.67
2022-11-24T06:49:35.416Z,99378.27
2022-11-24T06:52:03.440Z,99382.27
2022-11-24T06:54:31.669Z,99384.48
2022-11-24T06:57:00.329Z,99386.71
2022-11-24T06:59:28.282Z,99389.85
2022-11-24T07:01:56.215Z,99393.54
2022-11-24T07:04:24.083Z,99395.13
2022-11-24T07:06:52.036Z,99397.24
2022-11-24T07:09:19.967Z,99400.55
2022-11-24T07:11:47.886Z,99402.16
2022-11-24T07:14:15.876Z,99404.84
2022-11-24T07:16:43.790Z,99408.10
2022-11-24T07:19:11.988Z,99412.55
2022-11-24T07:21:39.868Z,99417.38
2022-11-24T07:24:07.963Z,99416.48
2022-11-24T07:26:37.538Z,99415.58
2022-11-24T07:29:06.077Z,99416.62
2022-11-24T07:31:34.210Z,99418.36
2022-11-24T07:34:02.249Z,99422.60
2022-11-24T07:36:30.155Z,99419.64
2022-11-24T07:38:58.667Z,99422.84
2022-11-24T07:41:27.023Z,99423.24
2022-11-24T07:43:55.819Z,99426.08
2022-11-24T07:46:23.892Z,99426.98
2022-11-24T07:48:52.033Z,99424.20
2022-11-24T07:51:20.022Z,99426.42
2022-11-24T07:53:47.900Z,99428.50
2022-11-24T07:56:15.804Z,99430.55
2022-11-24T07:58:45.091Z,99430.97
2022-11-24T08:01:19.423Z,99434.33
2022-11-24T08:03:47.544Z,99435.44
2022-11-24T08:06:29.989Z,99433.98
2022-11-24T08:09:00.555Z,99432.20
2022-11-24T08:11:28.590Z,99431.36
2022-11-24T08:13:57.819Z,99435.02
2022-11-24T08:16:25.860Z,99438.61
2022-11-24T08:18:55.501Z,99441.30
2022-11-24T08:21:25.692Z,99442.55
2022-11-24T08:23:54.941Z,99449.30
2022-11-24T08:26:24.875Z,99448.04
2022-11-24T08:28:58.590Z,99449.48
2022-11-24T08:31:33.837Z,99450.90
2022-11-24T08:34:03.816Z,99451.95
2022-11-24T08:36:33.244Z,99452.80
2022-11-24T08:39:01.713Z,99454.91
2022-11-24T08:41:30.841Z,99456.64
2022-11-24T08:43:58.814Z,99453.45
2022-11-24T08:46:26.694Z,99453.55
2022-11-24T08:48:55.340Z,99452.53
2022-11-24T08:51:26.089Z,99454.58
2022-11-24T08:53:59.021Z,99457.00
2022-11-24T08:56:29.634Z,99455.27
2022-11-24T08:58:58.132Z,99453.85
2022-11-24T09:01:26.884Z,99451.51
2022-11-24T09:03:55.100Z,99454.30
2022-11-24T09:06:26.583Z,99452.73
2022-11-24T09:08:55.687Z,99454.14
2022-11-24T09:11:25.900Z,99454.88
2022-11-24T09:13:55.218Z,99456.85
2022-11-24T09:16:26.161Z,99455.17
2022-11-24T09:18:58.380Z,99455.48
2022-11-24T09:21:27.171Z,99458.19
2022-11-24T09:23:55.710Z,99456.58
2022-11-24T09:26:26.727Z,99457.30
2022-11-24T09:28:55.429Z,99457.01
2022-11-24T09:31:26.337Z,99457.25
2022-11-24T09:33:54.685Z,99461.31
2022-11-24T09:36:23.853Z,99460.58
2022-11-24T09:38:52.643Z,99460.48
2022-11-24T09:41:44.600Z,99461.14
2022-11-24T09:44:31.394Z,99464.59
2022-11-24T09:47:17.260Z,99461.48
2022-11-24T09:49:56.428Z,99460.78
2022-11-24T09:52:53.208Z,99457.98
2022-11-24T09:55:51.935Z,99456.21
2022-11-24T09:58:43.067Z,99454.40
2022-11-24T10:01:26.261Z,99455.26
2022-11-24T10:03:55.047Z,99454.30
2022-11-24T10:06:31.194Z,99454.00
2022-11-24T10:09:37.146Z,99454.64
2022-11-24T10:12:05.393Z,99454.77
2022-11-24T10:14:59.064Z,99456.30
2022-11-24T10:17:51.403Z,99451.30
2022-11-24T10:20:38.497Z,99449.18
2022-11-24T10:23:27.091Z,99448.70
2022-11-24T10:25:59.364Z,99452.27
2022-11-24T10:28:42.367Z,99450.95
2022-11-24T10:31:24.768Z,99449.83
2022-11-24T10:33:52.674Z,99449.35
2022-11-24T10:37:03.109Z,99450.56
2022-11-24T10:39:36.002Z,99450.84
2022-11-24T10:42:10.217Z,99447.49
2022-11-24T10:44:41.118Z,99447.23
2022-11-24T10:47:20.310Z,99449.92
2022-11-24T10:50:09.342Z,99451.31
2022-11-24T10:52:43.163Z,99447.48
2022-11-24T10:55:11.154Z,99449.23
2022-11-24T10:57:40.745Z,99451.56
2022-11-24T11:00:20.895Z,99453.13
2022-11-24T11:02:51.050Z,99455.38
2022-11-24T11:05:44.008Z,99454.45
2022-11-24T11:08:17.475Z,99458.20
2022-11-24T11:10:46.730Z,99459.34
2022-11-24T11:13:27.394Z,99458.61
2022-11-24T11:15:57.659Z,99461.54
2022-11-24T11:18:32.869Z,99461.59
2022-11-24T11:21:02.502Z,99464.09
2022-11-24T11:23:34.938Z,99461.98
2022-11-24T11:26:24.727Z,99461.73
2022-11-24T11:35:04.180Z,99467.84
2022-11-24T11:37:33.645Z,99470.92
2022-11-24T11:40:01.997Z,99468.17
2022-11-24T11:43:00.920Z,99465.19
2022-11-24T11:45:28.024Z,99465.65
2022-11-24T11:47:59.170Z,99470.98
2022-11-24T11:50:47.373Z,99466.66
2022-11-24T11:53:34.095Z,99468.02
2022-11-24T11:56:25.826Z,99467.09
2022-11-24T11:59:00.314Z,99467.19
2022-11-24T12:01:38.038Z,99469.90
2022-11-24T12:04:44.336Z,99473.60
2022-11-24T12:07:57.091Z,99470.05
2022-11-24T12:10:37.013Z,99471.45
2022-11-24T12:13:13.932Z,99477.52
2022-11-24T12:15:49.690Z,99478.80
2022-11-24T12:18:55.861Z,99483.73
2022-11-24T12:21:26.023Z,99487.32
2022-11-24T12:23:57.544Z,99489.64
2022-11-24T12:26:54.729Z,99494.30
2022-11-24T12:29:48.286Z,99489.17
2022-11-24T12:32:50.450Z,99497.16
2022-11-24T12:35:36.267Z,99504.45
2022-11-24T12:38:23.087Z,99506.70
2022-11-24T12:41:40.541Z,99509.16
2022-11-24T12:44:27.291Z,99506.52
2022-11-24T12:47:10.245Z,99498.95
2022-11-24T12:50:14.564Z,99501.89
2022-11-24T12:52:45.558Z,99501.09
2022-11-24T12:55:23.755Z,99502.04
2022-11-24T12:58:07.804Z,99504.35
2022-11-24T13:01:11.563Z,99507.52
2022-11-24T13:03:54.959Z,99510.15
2022-11-24T13:06:29.572Z,99514.02
2022-11-24T13:08:57.769Z,99514.48
2022-11-24T13:11:36.898Z,99515.70
2022-11-24T13:14:26.510Z,99518.64
2022-11-24T13:17:28.053Z,99517.89
2022-11-24T13:19:48.567Z,99519.59
2022-11-24T13:22:26.476Z,99517.64
2022-11-24T13:25:14.735Z,99520.42
2022-11-24T13:27:45.710Z,99525.91
2022-11-24T13:30:35.473Z,99529.64
2022-11-24T13:33:16.455Z,99527.92
2022-11-24T13:36:04.395Z,99528.49
2022-11-24T13:38:51.432Z,99531.64
2022-11-24T13:41:31.504Z,99531.73
2022-11-24T13:44:14.933Z,99533.27
2022-11-24T13:47:06.695Z,99532.80
2022-11-24T13:49:38.916Z,99532.45
2022-11-24T13:52:34.624Z,99534.10
2022-11-24T13:55:21.844Z,99537.61
2022-11-24T13:58:00.524Z,99537.61
2022-11-24T14:00:32.120Z,99541.01
2022-11-24T14:03:15.395Z,99543.41
2022-11-24T14:05:50.666Z,99542.90
2022-11-24T14:08:26.298Z,99541.56
2022-11-24T14:10:56.525Z,99544.75
2022-11-24T14:13:30.826Z,99551.26
2022-11-24T14:16:03.114Z,99554.14
2022-11-24T14:18:32.402Z,99557.52
2022-11-24T14:21:27.902Z,99556.36
2022-11-24T14:24:17.017Z,99556.83
2022-11-24T14:26:46.182Z,99558.60
2022-11-24T14:29:20.379Z,99564.02
2022-11-24T14:31:57.111Z,99571.10
2022-11-24T14:34:28.045Z,99572.69
2022-11-24T14:36:57.228Z,99575.04
2022-11-24T14:39:27.067Z,99577.90
2022-11-24T14:42:07.991Z,99580.52
2022-11-24T14:44:42.066Z,99584.14
2022-11-24T14:47:32.033Z,99579.45
2022-11-24T14:50:27.182Z,99581.98
2022-11-24T14:52:57.143Z,99581.78
2022-11-24T14:55:33.053Z,99579.48
2022-11-24T14:58:01.027Z,99580.78
2022-11-24T15:00:31.728Z,99581.56
2022-11-24T15:03:02.405Z,99584.94
2022-11-24T15:05:50.854Z,99588.25
2022-11-24T15:08:18.826Z,99589.96
2022-11-24T15:10:46.977Z,99592.34
2022-11-24T15:13:19.998Z,99599.08
2022-11-24T15:15:51.998Z,99600.50
2022-11-24T15:18:43.218Z,99604.18
2022-11-24T15:21:18.569Z,99611.68
2022-11-24T15:24:06.130Z,99611.95
2022-11-24T15:26:38.512Z,99617.95
2022-11-24T15:29:13.300Z,99620.34
2022-11-24T15:31:44.198Z,99624.64
2022-11-24T15:34:15.771Z,99624.98
2022-11-24T15:36:43.621Z,99626.75
2022-11-24T15:39:11.551Z,99629.92
2022-11-24T15:41:40.733Z,99632.33
2022-11-24T15:44:10.236Z,99637.38
2022-11-24T15:46:39.557Z,99640.88
2022-11-24T15:49:07.567Z,99643.59
2022-11-24T15:51:36.126Z,99646.23
2022-11-24T15:54:04.090Z,99652.13
2022-11-24T15:56:34.743Z,99653.06
2022-11-24T15:59:04.695Z,99653.61
2022-11-24T16:01:34.472Z,99654.60
2022-11-24T16:04:03.060Z,99658.30
2022-11-24T16:06:31.125Z,99659.52
2022-11-24T16:08:59.138Z,99660.79
2022-11-24T16:11:27.665Z,99663.23
2022-11-24T16:13:55.591Z,99661.73
2022-11-24T16:16:25.405Z,99664.81
2022-11-24T16:18:53.389Z,99667.20
2022-11-24T16:21:21.390Z,99668.36
2022-11-24T16:23:49.254Z,99666.31
2022-11-24T16:26:17.275Z,99668.65
2022-11-24T16:28:45.905Z,99672.80
2022-11-24T16:31:16.022Z,99671.95
2022-11-24T16:33:46.422Z,99671.09
2022-11-24T16:36:14.406Z,99674.19
2022-11-24T16:38:42.537Z,99672.66
2022-11-24T16:41:10.674Z,99678.64
2022-11-24T16:43:39.061Z,99678.60
2022-11-24T16:46:07.015Z,99678.40
2022-11-24T16:48:37.967Z,99677.92
2022-11-24T16:51:07.109Z,99676.95
2022-11-24T16:53:35.091Z,99679.40
2022-11-24T16:56:03.700Z,99679.96
2022-11-24T16:58:31.715Z,99684.01
2022-11-24T17:01:04.982Z,99688.64
2022-11-24T17:03:34.122Z,99689.52
2022-11-24T17:06:02.196Z,99691.83
2022-11-24T17:08:39.402Z,99692.71
2022-11-24T17:11:14.831Z,99688.66
2022-11-24T17:13:43.558Z,99690.75
2022-11-24T17:16:14.111Z,99694.48
2022-11-24T17:18:42.989Z,99695.48
2022-11-24T17:21:22.256Z,99690.73
2022-11-24T17:23:58.042Z,99694.20
2022-11-24T17:26:27.114Z,99693.34
2022-11-24T17:28:56.257Z,99698.06
2022-11-24T17:31:27.354Z,99700.94
2022-11-24T17:33:57.252Z,99702.19
2022-11-24T17:36:26.309Z,99703.83
2022-11-24T17:38:54.475Z,99704.83
2022-11-24T17:41:23.298Z,99705.77
2022-11-24T17:43:53.209Z,99711.54
2022-11-24T17:46:21.458Z,99710.29
2022-11-24T17:48:50.139Z,99708.40
2022-11-24T17:51:20.467Z,99706.33
2022-11-24T17:53:50.554Z,99706.15
2022-11-24T17:56:23.531Z,99709.69
2022-11-24T17:58:57.260Z,99711.52
2022-11-24T18:01:28.700Z,99715.55
2022-11-24T18:03:58.130Z,99717.88
2022-11-24T18:06:28.707Z,99723.79
2022-11-24T18:08:57.962Z,99725.46
2022-11-24T18:11:32.001Z,99727.55
2022-11-24T18:14:03.802Z,99730.45
2022-11-24T18:16:34.584Z,99735.94
2022-11-24T18:19:08.674Z,99738.89
2022-11-24T18:21:41.220Z,99738.58
2022-11-24T18:24:10.624Z,99741.96
2022-11-24T18:26:40.472Z,99741.07
2022-11-24T18:29:09.453Z,99740.80
2022-11-24T18:31:38.302Z,99741.33
2022-11-24T18:34:07.004Z,99743.13
2022-11-24T18:36:35.179Z,99744.88
2022-11-24T18:39:05.479Z,99745.00
2022-11-24T18:41:34.885Z,99744.02
2022-11-24T18:44:07.673Z,99745.73
2022-11-24T18:46:36.803Z,99746.77
2022-11-24T18:49:07.315Z,99749.42
2022-11-24T18:51:36.028Z,99751.50
2022-11-24T18:54:05.586Z,99754.89
2022-11-24T18:56:34.124Z,99757.55
2022-11-24T18:59:02.180Z,99760.55
2022-11-24T19:01:30.291Z,99764.00
2022-11-24T19:04:00.690Z,99765.52
2022-11-24T19:06:32.519Z,99769.52
2022-11-24T19:09:13.070Z,99772.11
2022-11-24T19:11:43.489Z,99772.73
2022-11-24T19:14:14.572Z,99775.23
2022-11-24T19:16:43.253Z,99777.48
2022-11-24T19:19:12.792Z,99773.12
2022-11-24T19:21:41.251Z,99775.98
2022-11-24T19:24:10.293Z,99773.34
2022-11-24T19:26:39.475Z,99778.80
2022-11-24T19:29:08.015Z,99778.66
2022-11-24T19:31:38.459Z,99781.59
2022-11-24T19:34:09.084Z,99786.19
2022-11-24T19:36:37.705Z,99790.90
2022-11-24T19:39:05.735Z,99791.36
2022-11-24T19:41:34.606Z,99793.62
2022-11-24T19:44:02.677Z,99803.20
2022-11-24T19:46:30.731Z,99800.53
2022-11-24T19:49:00.904Z,99803.54
2022-11-24T19:51:32.168Z,99806.46
2022-11-24T19:54:00.711Z,99815.29
2022-11-24T19:56:31.463Z,99817.56
2022-11-24T19:58:59.587Z,99821.92
2022-11-24T20:01:33.537Z,99825.95
2022-11-24T20:04:05.010Z,99826.41
2022-11-24T20:06:36.871Z,99830.66
2022-11-24T20:09:07.621Z,99837.45
2022-11-24T20:11:35.615Z,99842.64
2022-11-24T20:14:04.499Z,99846.58
2022-11-24T20:16:33.719Z,99851.42
2022-11-24T20:19:07.586Z,99852.46
2022-11-24T20:21:37.826Z,99855.02
2022-11-24T20:24:15.424Z,99852.89
2022-11-24T20:26:46.866Z,99859.40
2022-11-24T20:29:15.657Z,99863.04
2022-11-24T20:31:46.816Z,99865.06
2022-11-24T20:34:14.859Z,99865.95
2022-11-24T20:36:45.612Z,99867.81
2022-11-24T20:39:17.259Z,99870.22
2022-11-24T20:41:45.204Z,99872.92
2022-11-24T20:44:16.184Z,99879.00
2022-11-24T20:46:45.024Z,99881.80
2022-11-24T20:49:18.761Z,99888.14
2022-11-24T20:51:54.313Z,99888.14
2022-11-24T20:54:22.891Z,99888.29
2022-11-24T20:56:50.960Z,99892.67
2022-11-24T20:59:22.569Z,99897.63
2022-11-24T21:01:51.965Z,99900.46
2022-11-24T21:04:22.632Z,99905.89
2022-11-24T21:06:50.827Z,99910.66
2022-11-24T21:09:19.426Z,99914.09
2022-11-24T21:11:48.241Z,99916.70
2022-11-24T21:14:16.877Z,99918.65
2022-11-24T21:16:44.902Z,99921.29
2022-11-24T21:19:17.652Z,99925.77
2022-11-24T21:21:47.770Z,99927.30
2022-11-24T21:24:19.365Z,99933.83
2022-11-24T21:26:47.895Z,99937.21
2022-11-24T21:29:19.254Z,99941.14
2022-11-24T21:31:47.349Z,99943.92
2022-11-24T21:34:18.599Z,99949.71
2022-11-24T21:36:47.296Z,99952.08
2022-11-24T21:39:16.370Z,99956.73
2022-11-24T21:41:44.819Z,99958.26
2022-11-24T21:44:13.767Z,99958.10
2022-11-24T21:46:48.117Z,99961.54
2022-11-24T21:49:19.055Z,99963.45
2022-11-24T21:51:47.513Z,99966.73
2022-11-24T21:54:15.618Z,99968.88
2022-11-24T21:56:43.628Z,99973.36
2022-11-24T21:59:11.485Z,99978.19
2022-11-24T22:01:39.590Z,99984.20
2022-11-24T22:04:07.686Z,99984.88
2022-11-24T22:06:35.866Z,99987.58
2022-11-24T22:09:03.917Z,99991.14
2022-11-24T22:11:31.791Z,99991.45
2022-11-24T22:13:59.866Z,99996.84
2022-11-24T22:16:28.193Z,99999.41
2022-11-24T22:18:56.231Z,100002.75
2022-11-24T22:21:30.155Z,100002.74
2022-11-24T22:23:58.187Z,100006.78
2022-11-24T22:26:27.697Z,100009.95
2022-11-24T22:28:57.287Z,100010.23
2022-11-24T22:31:27.716Z,100014.02
2022-11-24T22:33:57.140Z,100014.11
2022-11-24T22:36:27.822Z,100018.94
2022-11-24T22:39:03.829Z,100021.29
2022-11-24T22:41:34.048Z,100021.04
2022-11-24T22:44:02.601Z,100022.64
2022-11-24T22:46:32.064Z,100025.16
2022-11-24T22:49:01.728Z,100027.27
2022-11-24T22:51:33.019Z,100032.02
2022-11-24T22:54:04.134Z,100031.50
2022-11-24T22:56:33.528Z,100032.48
2022-11-24T22:59:02.631Z,100034.31
2022-11-24T23:01:32.129Z,100038.78
2022-11-24T23:04:00.382Z,100042.93
2022-11-24T23:06:31.205Z,100045.92
2022-11-24T23:09:00.937Z,100051.70
2022-11-24T23:11:37.239Z,100054.92
2022-11-24T23:14:14.172Z,100052.96
2022-11-24T23:16:42.872Z,100057.08
2022-11-24T23:19:10.999Z,100059.18
2022-11-24T23:21:39.098Z,100056.27
2022-11-24T23:24:08.705Z,100053.92
2022-11-24T23:26:39.733Z,100051.80
2022-11-24T23:29:08.142Z,100053.81
2022-11-24T23:31:39.779Z,100052.29
2022-11-24T23:34:08.178Z,100056.54
2022-11-24T23:36:36.146Z,100058.39
2022-11-24T23:39:11.600Z,100058.59
2022-11-24T23:41:40.078Z,100063.02
2022-11-24T23:44:09.076Z,100066.37
2022-11-24T23:46:37.338Z,100067.27
2022-11-24T23:49:05.281Z,100064.83
2022-11-24T23:51:33.845Z,100067.03
2022-11-24T23:54:02.171Z,100068.07
2022-11-24T23:56:32.756Z,100075.25
2022-11-24T23:59:02.047Z,100077.59
